Time;durP1;ratioP1;P1;durP2;ratioP2;P2;SDS_P1;SDS_P2;PMS_P1;PMS_P2;Temp;Humidity;BMP_temperature;BMP_pressure;BME280_temperature;BME280_humidity;BME280_pressure;Samples;Min_cycle;Max_cycle;Signal;HPM_P1;HPM_P2
2022/01/10 00:00:35;;;;;;;23.77;5.45;;;3.20;99.90;;;;;;5054010;28;20048;-77
2022/01/10 00:03:02;;;;;;;23.50;4.85;;;2.30;99.90;;;;;;5053740;28;20032;-77
2022/01/10 00:05:28;;;;;;;25.63;4.65;;;2.20;99.90;;;;;;5037253;28;20063;-77
2022/01/10 00:07:54;;;;;;;24.55;5.13;;;3.00;99.90;;;;;;5036715;28;20423;-77
2022/01/10 00:10:20;;;;;;;22.45;5.22;;;2.20;99.90;;;;;;5037330;28;20131;-77
2022/01/10 00:12:46;;;;;;;21.23;5.35;;;2.20;99.90;;;;;;5053961;28;20036;-77
2022/01/10 00:15:12;;;;;;;22.13;5.07;;;2.20;99.90;;;;;;5041635;28;20399;-77
2022/01/10 00:17:38;;;;;;;16.38;4.63;;;2.50;99.90;;;;;;5062476;28;20075;-77
2022/01/10 00:20:10;;;;;;;21.75;5.57;;;2.20;99.90;;;;;;5057323;28;20123;-77
2022/01/10 00:22:37;;;;;;;16.52;4.20;;;2.20;99.90;;;;;;5055774;28;20045;-77
2022/01/10 00:25:04;;;;;;;24.65;5.00;;;2.50;99.90;;;;;;5065782;28;20072;-77
2022/01/10 00:27:30;;;;;;;26.17;5.25;;;2.20;99.90;;;;;;5039918;28;20499;-77
2022/01/10 00:29:55;;;;;;;26.58;5.43;;;2.20;99.90;;;;;;5052997;28;20040;-77
2022/01/10 00:32:23;;;;;;;26.00;4.97;;;2.20;99.90;;;;;;5049509;28;20043;-77
2022/01/10 00:34:49;;;;;;;18.60;4.93;;;2.30;99.90;;;;;;5044893;28;20310;-77
2022/01/10 00:37:15;;;;;;;23.83;5.70;;;2.10;99.90;;;;;;5055298;28;20050;-77
2022/01/10 00:39:41;;;;;;;23.35;5.25;;;2.10;99.90;;;;;;5056195;28;20540;-77
2022/01/10 00:42:07;;;;;;;24.70;5.38;;;2.00;99.90;;;;;;5038780;28;20066;-77
2022/01/10 00:44:38;;;;;;;17.25;4.82;;;2.00;99.90;;;;;;5054280;28;20488;-77
2022/01/10 00:47:04;;;;;;;25.65;6.20;;;2.00;99.90;;;;;;5041213;28;20512;-77
2022/01/10 00:49:31;;;;;;;21.80;5.70;;;2.00;99.90;;;;;;5065529;28;20378;-77
2022/01/10 00:51:56;;;;;;;34.75;6.78;;;2.00;99.90;;;;;;5060454;28;20562;-77
2022/01/10 00:54:22;;;;;;;23.17;6.05;;;2.00;99.90;;;;;;5054703;28;20115;-76
2022/01/10 00:56:48;;;;;;;19.00;6.00;;;2.20;99.90;;;;;;5064753;28;20039;-77
2022/01/10 00:59:14;;;;;;;35.20;6.18;;;2.00;99.90;;;;;;5052050;28;20477;-77
2022/01/10 01:01:40;;;;;;;23.58;6.65;;;2.00;99.90;;;;;;5045675;28;20387;-77
2022/01/10 01:04:06;;;;;;;;;;;2.00;99.90;;;;;;5056072;28;20119;-77
2022/01/10 01:06:31;;;;;;;28.42;6.43;;;2.00;99.90;;;;;;5051544;28;20380;-77
2022/01/10 01:09:02;;;;;;;23.45;5.97;;;1.90;99.90;;;;;;5045766;28;20093;-77
2022/01/10 01:12:17;;;;;;;29.67;7.10;;;2.80;99.90;;;;;;5070326;28;20077;-77
2022/01/10 01:14:23;;;;;;;21.90;6.40;;;1.80;99.90;;;;;;5058274;28;20608;-76
2022/01/10 01:17:08;;;;;;;27.30;6.78;;;1.80;99.90;;;;;;5052502;28;20046;-77
2022/01/10 01:25:04;;;;;;;19.17;5.88;;;2.30;99.90;;;;;;5055105;28;20436;-77
2022/01/10 01:27:29;;;;;;;31.40;7.03;;;1.80;99.90;;;;;;5040629;28;20573;-77
2022/01/10 01:29:55;;;;;;;22.65;6.55;;;2.40;99.90;;;;;;5052110;28;20045;-77
2022/01/10 01:32:21;;;;;;;35.63;8.15;;;1.70;99.90;;;;;;5019042;28;20036;-77
2022/01/10 01:34:47;;;;;;;32.28;7.35;;;1.70;99.90;;;;;;5051802;28;20368;-77
2022/01/10 01:37:12;;;;;;;25.00;6.90;;;1.70;99.90;;;;;;5071545;28;20103;-77
2022/01/10 01:39:38;;;;;;;30.13;7.47;;;2.80;99.90;;;;;;5066039;28;20104;-77
2022/01/10 01:42:31;;;;;;;31.83;7.03;;;2.80;99.90;;;;;;5058513;28;20124;-77
2022/01/10 01:44:50;;;;;;;24.00;6.53;;;1.70;99.90;;;;;;5069129;28;20355;-77
2022/01/10 01:47:16;;;;;;;28.83;7.00;;;2.20;99.90;;;;;;5035191;28;20040;-77
2022/01/10 01:49:42;;;;;;;26.60;7.45;;;3.00;99.90;;;;;;5055660;28;20044;-77
2022/01/10 01:52:08;;;;;;;29.38;7.03;;;1.70;99.90;;;;;;5071558;28;20032;-77
2022/01/10 01:54:33;;;;;;;39.30;8.20;;;1.60;99.90;;;;;;5023081;28;20179;-77
2022/01/10 01:57:00;;;;;;;24.23;7.53;;;1.60;99.90;;;;;;5018550;28;20310;-77
2022/01/10 01:59:26;;;;;;;26.50;7.18;;;1.60;99.90;;;;;;5018024;28;20384;-77
2022/01/10 02:01:51;;;;;;;32.97;7.68;;;2.00;99.90;;;;;;5054578;28;20456;-77
2022/01/10 02:04:17;;;;;;;26.65;7.40;;;1.50;99.90;;;;;;5058852;28;20114;-77
2022/01/10 02:06:43;;;;;;;28.70;7.20;;;1.50;99.90;;;;;;5035022;28;20101;-77
2022/01/10 02:09:14;;;;;;;29.67;7.40;;;1.50;99.90;;;;;;5035528;28;20075;-77
2022/01/10 02:11:40;;;;;;;30.60;7.80;;;1.40;99.90;;;;;;5056419;28;20279;-77
2022/01/10 02:14:08;;;;;;;27.65;6.97;;;2.10;99.90;;;;;;5048540;28;20123;-77
2022/01/10 02:16:42;;;;;;;25.90;7.30;;;1.50;99.90;;;;;;5051348;28;20047;-77
2022/01/10 02:19:08;;;;;;;32.13;7.78;;;1.50;99.90;;;;;;5041878;28;20044;-76
2022/01/10 02:21:34;;;;;;;30.75;7.55;;;1.50;99.90;;;;;;5057558;28;20042;-77
2022/01/10 02:24:00;;;;;;;33.72;8.27;;;1.50;99.90;;;;;;5068420;28;20070;-77
2022/01/10 02:26:26;;;;;;;28.40;7.53;;;1.60;99.90;;;;;;5054236;28;20067;-77
2022/01/10 02:28:51;;;;;;;28.20;7.85;;;1.40;99.90;;;;;;5061587;28;20371;-76
2022/01/10 02:31:17;;;;;;;25.13;8.00;;;1.50;99.90;;;;;;5070559;28;20036;-77
2022/01/10 02:33:43;;;;;;;30.67;7.85;;;1.40;99.90;;;;;;5071286;28;20036;-77
2022/01/10 02:36:29;;;;;;;24.02;7.55;;;2.50;99.90;;;;;;5061083;28;20126;-76
2022/01/10 02:39:00;;;;;;;25.60;7.38;;;1.50;99.90;;;;;;5041145;28;20447;-77
2022/01/10 02:41:28;;;;;;;28.42;7.80;;;1.40;99.90;;;;;;5051439;28;20509;-76
2022/01/10 02:43:55;;;;;;;32.22;8.15;;;1.40;99.90;;;;;;5052282;28;20032;-76
2022/01/10 02:46:22;;;;;;;33.00;8.68;;;1.50;99.90;;;;;;5041475;28;20036;-76
2022/01/10 02:48:47;;;;;;;33.17;8.93;;;1.40;99.90;;;;;;5047342;28;20759;-76
2022/01/10 02:51:13;;;;;;;29.45;8.25;;;2.20;99.90;;;;;;5050391;28;20037;-77
2022/01/10 02:53:39;;;;;;;34.15;9.80;;;1.40;99.90;;;;;;5052274;28;20111;-76
2022/01/10 02:56:05;;;;;;;35.22;8.10;;;1.30;99.90;;;;;;5036259;28;20054;-76
2022/01/10 02:58:31;;;;;;;32.67;8.40;;;2.20;99.90;;;;;;5050450;28;20572;-76
2022/01/10 03:00:57;;;;;;;21.75;8.05;;;1.30;99.90;;;;;;5055976;28;20111;-76
2022/01/10 03:03:26;;;;;;;29.88;8.57;;;1.30;99.90;;;;;;5034090;28;20033;-77
2022/01/10 03:05:52;;;;;;;36.65;9.15;;;1.30;99.90;;;;;;5050359;28;20047;-77
2022/01/10 03:08:18;;;;;;;25.17;8.18;;;1.30;99.90;;;;;;5015891;28;20032;-76
2022/01/10 03:10:43;;;;;;;26.65;8.50;;;1.30;99.90;;;;;;5050647;28;20193;-77
2022/01/10 03:13:09;;;;;;;31.98;8.10;;;1.30;99.90;;;;;;5049052;28;20116;-76
2022/01/10 03:15:35;;;;;;;25.38;8.55;;;1.30;99.90;;;;;;5054071;28;20048;-76
2022/01/10 03:18:00;;;;;;;29.65;8.40;;;1.30;99.90;;;;;;5041194;28;20388;-76
2022/01/10 03:20:26;;;;;;;27.07;7.90;;;1.20;99.90;;;;;;5051977;28;20040;-77
2022/01/10 03:22:52;;;;;;;35.13;9.60;;;1.20;99.90;;;;;;5042069;28;20289;-76
2022/01/10 03:25:19;;;;;;;25.95;8.40;;;1.10;99.90;;;;;;5065421;28;20638;-76
2022/01/10 03:27:45;;;;;;;29.83;9.35;;;1.10;99.90;;;;;;5070701;28;20039;-76
2022/01/10 03:30:11;;;;;;;28.77;7.80;;;1.10;99.90;;;;;;5063477;28;20036;-76
2022/01/10 03:32:37;;;;;;;28.90;8.02;;;1.10;99.90;;;;;;5050954;28;20032;-76
2022/01/10 03:35:05;;;;;;;26.27;8.23;;;1.00;99.90;;;;;;5033826;28;20039;-76
2022/01/10 03:37:31;;;;;;;31.17;8.73;;;1.00;99.90;;;;;;5049900;28;20131;-76
2022/01/10 03:39:57;;;;;;;30.08;8.73;;;1.00;99.90;;;;;;5017646;28;20045;-76
2022/01/10 03:42:22;;;;;;;30.70;9.55;;;1.00;99.90;;;;;;5033491;28;20040;-76
2022/01/10 03:44:48;;;;;;;33.03;9.02;;;0.90;99.90;;;;;;5053967;28;20101;-76
2022/01/10 03:47:17;;;;;;;35.85;8.50;;;0.90;99.90;;;;;;5069952;28;20040;-76
2022/01/10 03:49:43;;;;;;;23.00;8.80;;;0.90;99.90;;;;;;5061360;28;20113;-76
2022/01/10 03:52:08;;;;;;;23.10;8.93;;;2.20;99.90;;;;;;5036109;28;20036;-76
2022/01/10 03:54:34;;;;;;;30.73;9.57;;;0.90;99.90;;;;;;5058270;28;20029;-76
2022/01/10 03:57:00;;;;;;;29.67;8.73;;;0.90;99.90;;;;;;5050487;28;20283;-76
2022/01/10 03:59:25;;;;;;;39.43;10.23;;;0.90;99.90;;;;;;5037413;28;20290;-77
2022/01/10 04:01:52;;;;;;;37.85;10.00;;;0.90;99.90;;;;;;5070213;28;20048;-76
2022/01/10 04:04:18;;;;;;;38.42;10.23;;;0.80;99.90;;;;;;5069838;28;20040;-77
2022/01/10 04:06:44;;;;;;;37.35;9.82;;;1.20;99.90;;;;;;5053497;28;20040;-76
2022/01/10 04:09:09;;;;;;;29.67;10.25;;;0.80;99.90;;;;;;5057980;28;20519;-76
2022/01/10 04:11:36;;;;;;;42.90;11.60;;;1.40;99.90;;;;;;5036578;28;20036;-76
2022/01/10 04:14:02;;;;;;;;;;;0.70;99.90;;;;;;5052727;28;20033;-76
2022/01/10 04:16:28;;;;;;;31.60;10.43;;;0.70;99.90;;;;;;5049973;28;19966;-77
2022/01/10 04:18:53;;;;;;;30.45;11.05;;;0.70;99.90;;;;;;5030700;28;20500;-76
2022/01/10 04:21:19;;;;;;;44.83;13.40;;;1.90;99.90;;;;;;5056819;28;20035;-76
2022/01/10 04:23:45;;;;;;;31.95;11.25;;;0.70;99.90;;;;;;5057042;28;20178;-79
2022/01/10 04:26:10;;;;;;;40.58;12.57;;;1.30;99.90;;;;;;5073414;28;20395;-76
2022/01/10 04:28:36;;;;;;;36.78;11.52;;;0.60;99.90;;;;;;5039986;28;20211;-76
2022/01/10 04:31:04;;;;;;;48.65;12.82;;;0.60;99.90;;;;;;5037678;28;20033;-76
2022/01/10 04:33:30;;;;;;;59.35;14.45;;;0.60;99.90;;;;;;5060635;28;20515;-77
2022/01/10 04:35:57;;;;;;;42.65;13.38;;;0.60;99.90;;;;;;5040043;28;20040;-76
2022/01/10 04:38:23;;;;;;;48.75;13.70;;;0.60;99.90;;;;;;5053187;28;20119;-77
2022/01/10 04:40:49;;;;;;;;;;;0.60;99.90;;;;;;5053749;28;20048;-76
2022/01/10 04:43:15;;;;;;;52.75;14.82;;;1.50;99.90;;;;;;5053508;28;19924;-76
2022/01/10 04:45:42;;;;;;;53.10;16.10;;;0.60;99.90;;;;;;5050103;28;20044;-76
2022/01/10 04:48:08;;;;;;;60.78;16.98;;;0.60;99.90;;;;;;5052649;28;20094;-76
2022/01/10 04:53:18;;;;;;;61.47;18.75;;;0.50;99.90;;;;;;5065162;28;20052;-76
2022/01/10 04:55:44;;;;;;;53.65;17.42;;;0.50;99.90;;;;;;5068259;28;20535;-76
2022/01/10 04:58:10;;;;;;;57.05;19.45;;;0.50;99.90;;;;;;5038708;28;20061;-77
2022/01/10 05:00:35;;;;;;;46.78;16.83;;;0.50;99.90;;;;;;5062533;28;20040;-76
2022/01/10 05:03:01;;;;;;;76.47;21.52;;;0.50;99.90;;;;;;5027017;28;20044;-76
2022/01/10 05:05:27;;;;;;;60.00;19.17;;;0.50;99.90;;;;;;5053576;28;20047;-76
2022/01/10 05:07:53;;;;;;;59.25;18.55;;;0.50;99.90;;;;;;5073134;28;20118;-76
2022/01/10 05:10:18;;;;;;;50.22;18.27;;;0.40;99.90;;;;;;5059965;28;20127;-76
2022/01/10 05:12:45;;;;;;;55.05;18.17;;;0.50;99.90;;;;;;5068735;28;20115;-76
2022/01/10 05:15:10;;;;;;;54.30;19.48;;;1.10;99.90;;;;;;5026681;28;20036;-77
2022/01/10 05:17:36;;;;;;;63.97;20.98;;;0.40;99.90;;;;;;5062801;28;20046;-76
2022/01/10 05:20:03;;;;;;;62.90;20.92;;;0.40;99.90;;;;;;5039190;28;20123;-76
2022/01/10 05:22:29;;;;;;;161.07;33.22;;;0.50;99.90;;;;;;5047840;28;20119;-77
2022/01/10 05:24:55;;;;;;;71.35;21.92;;;0.40;99.90;;;;;;5065726;28;20127;-76
2022/01/10 05:27:21;;;;;;;65.75;21.50;;;0.40;99.90;;;;;;5049691;28;20032;-76
2022/01/10 05:29:47;;;;;;;57.25;20.20;;;1.20;99.90;;;;;;5058428;28;20046;-77
2022/01/10 05:32:13;;;;;;;64.15;21.00;;;0.30;99.90;;;;;;5045494;28;20115;-77
2022/01/10 05:34:38;;;;;;;70.45;22.48;;;0.40;99.90;;;;;;5055132;28;20120;-76
2022/01/10 05:37:04;;;;;;;69.70;22.90;;;0.40;99.90;;;;;;5043420;28;20024;-76
2022/01/10 05:39:30;;;;;;;65.15;22.70;;;0.40;99.90;;;;;;5066182;28;20093;-77
2022/01/10 05:41:55;;;;;;;72.47;21.98;;;0.30;99.90;;;;;;5045463;28;20037;-76
2022/01/10 05:44:22;;;;;;;61.20;21.73;;;0.40;99.90;;;;;;5050912;28;20486;-77
2022/01/10 05:46:48;;;;;;;72.75;22.65;;;0.30;99.90;;;;;;5038125;28;20503;-77
2022/01/10 05:49:16;;;;;;;76.05;24.10;;;0.30;99.90;;;;;;5011870;28;20043;-75
2022/01/10 05:51:42;;;;;;;75.82;23.77;;;0.30;99.90;;;;;;5061704;28;20051;-75
2022/01/10 05:54:08;;;;;;;64.50;22.05;;;0.30;99.90;;;;;;5055034;28;20032;-76
2022/01/10 05:56:34;;;;;;;65.18;23.27;;;0.30;99.90;;;;;;5048676;28;20037;-75
2022/01/10 05:59:00;;;;;;;;;;;0.30;99.90;;;;;;5053219;28;20067;-75
2022/01/10 06:01:26;;;;;;;90.40;25.33;;;0.30;99.90;;;;;;5071374;28;19931;-75
2022/01/10 06:03:52;;;;;;;85.20;25.25;;;0.30;99.90;;;;;;5071649;28;20279;-75
2022/01/10 06:06:18;;;;;;;77.75;24.00;;;1.10;99.90;;;;;;5071800;28;20062;-75
2022/01/10 06:08:44;;;;;;;61.58;23.27;;;0.30;99.90;;;;;;5071855;28;20047;-75
2022/01/10 06:11:10;;;;;;;95.30;26.83;;;0.30;99.90;;;;;;5071445;28;20047;-75
2022/01/10 06:13:36;;;;;;;67.18;25.63;;;0.30;99.90;;;;;;5071236;28;20399;-75
2022/01/10 06:16:02;;;;;;;86.78;23.80;;;0.30;99.90;;;;;;5069659;28;20043;-75
2022/01/10 06:18:27;;;;;;;66.95;23.55;;;0.30;99.90;;;;;;5034860;28;20036;-75
2022/01/10 06:20:54;;;;;;;77.90;24.80;;;0.30;99.90;;;;;;5051826;28;20395;-75
2022/01/10 06:23:21;;;;;;;68.45;23.85;;;0.40;99.90;;;;;;5035061;28;20518;-75
2022/01/10 06:25:46;;;;;;;89.07;26.05;;;0.20;99.90;;;;;;5051433;28;20561;-75
2022/01/10 06:28:12;;;;;;;74.72;24.92;;;0.20;99.90;;;;;;5034874;28;20044;-75
2022/01/10 06:30:38;;;;;;;73.80;23.55;;;0.20;99.90;;;;;;5051114;28;20045;-75
2022/01/10 06:33:04;;;;;;;75.60;23.90;;;0.20;99.90;;;;;;5051343;28;20045;-75
2022/01/10 06:35:29;;;;;;;80.38;25.60;;;0.20;99.90;;;;;;5034802;28;20543;-75
2022/01/10 06:37:55;;;;;;;84.35;26.38;;;0.20;99.90;;;;;;5034896;28;20417;-78
2022/01/10 06:40:21;;;;;;;89.15;26.38;;;0.20;99.90;;;;;;5034767;28;20391;-75
2022/01/10 06:42:47;;;;;;;72.25;23.40;;;0.50;99.90;;;;;;5051058;28;20045;-75
2022/01/10 06:45:13;;;;;;;87.18;25.90;;;0.20;99.90;;;;;;5050945;28;20177;-75
2022/01/10 06:47:39;;;;;;;70.53;24.33;;;0.20;99.90;;;;;;5061655;28;20071;-75
2022/01/10 06:50:06;;;;;;;72.20;25.10;;;0.10;99.90;;;;;;5054514;28;20040;-75
2022/01/10 06:52:32;;;;;;;73.40;24.58;;;0.20;99.90;;;;;;5061865;28;20037;-75
2022/01/10 06:54:58;;;;;;;88.43;27.50;;;0.10;99.90;;;;;;5034618;28;20043;-75
2022/01/10 06:57:24;;;;;;;86.05;26.83;;;0.10;99.90;;;;;;5050675;28;20566;-75
2022/01/10 06:59:50;;;;;;;88.28;26.40;;;0.10;99.90;;;;;;5050438;28;20127;-75
2022/01/10 07:02:15;;;;;;;75.40;26.08;;;0.10;99.90;;;;;;5048304;28;20512;-75
2022/01/10 07:04:41;;;;;;;83.65;25.75;;;0.20;99.90;;;;;;5000962;28;20466;-75
2022/01/10 07:07:07;;;;;;;93.93;27.98;;;1.00;99.90;;;;;;5051344;28;20396;-75
2022/01/10 07:09:33;;;;;;;94.88;29.40;;;0.20;99.90;;;;;;5050513;28;20052;-75
2022/01/10 07:11:59;;;;;;;83.60;26.70;;;0.20;99.90;;;;;;5050913;28;20037;-75
2022/01/10 07:14:25;;;;;;;86.50;27.42;;;0.20;99.90;;;;;;5051140;28;20090;-75
2022/01/10 07:16:50;;;;;;;105.00;29.87;;;0.20;99.90;;;;;;5050517;28;20033;-75
2022/01/10 07:19:17;;;;;;;94.22;29.00;;;0.20;99.90;;;;;;5036048;28;20782;-75
2022/01/10 07:21:43;;;;;;;77.18;27.38;;;0.50;99.90;;;;;;5063452;28;20040;-75
2022/01/10 07:24:09;;;;;;;67.93;26.55;;;0.20;99.90;;;;;;5048412;28;20033;-75
2022/01/10 07:26:35;;;;;;;103.97;31.05;;;0.20;99.90;;;;;;5050422;28;20047;-75
2022/01/10 07:29:03;;;;;;;111.15;30.25;;;0.20;99.90;;;;;;5050461;28;20037;-75
2022/01/10 07:31:29;;;;;;;105.70;31.25;;;0.20;99.90;;;;;;5034459;28;20044;-75
2022/01/10 07:33:56;;;;;;;82.18;26.95;;;0.20;99.90;;;;;;5050706;28;20040;-75
2022/01/10 07:36:21;;;;;;;;;;;0.20;99.90;;;;;;5051057;28;20071;-75
2022/01/10 07:38:47;;;;;;;98.03;31.55;;;0.20;99.90;;;;;;5033821;28;19955;-75
2022/01/10 07:41:13;;;;;;;135.88;36.60;;;0.20;99.90;;;;;;5050379;28;20044;-75
2022/01/10 07:43:39;;;;;;;95.40;30.90;;;0.20;99.90;;;;;;5050393;28;20089;-75
2022/01/10 07:46:05;;;;;;;121.28;32.50;;;0.20;99.90;;;;;;5050352;28;20089;-75
2022/01/10 07:48:35;;;;;;;125.10;34.60;;;0.20;99.90;;;;;;5065597;28;20044;-75
2022/01/10 07:51:01;;;;;;;104.60;30.42;;;0.40;99.90;;;;;;5033438;28;20047;-75
2022/01/10 07:53:27;;;;;;;;;;;0.10;99.90;;;;;;5053126;28;20055;-75
2022/01/10 07:55:52;;;;;;;100.55;30.55;;;0.20;99.90;;;;;;5037396;28;19916;-75
2022/01/10 07:58:18;;;;;;;128.00;32.63;;;0.10;99.90;;;;;;5037608;28;20565;-75
2022/01/10 08:00:44;;;;;;;117.63;34.03;;;0.20;99.90;;;;;;5021150;28;20063;-75
2022/01/10 08:03:10;;;;;;;116.93;33.65;;;0.20;99.90;;;;;;5054312;28;20040;-75
2022/01/10 08:05:36;;;;;;;116.63;33.88;;;0.10;99.90;;;;;;5053692;28;20567;-75
2022/01/10 08:08:02;;;;;;;81.90;29.10;;;0.20;99.90;;;;;;5034356;28;20376;-75
2022/01/10 08:10:28;;;;;;;117.90;33.20;;;0.20;99.90;;;;;;5073861;28;20028;-75
2022/01/10 08:12:54;;;;;;;89.53;29.70;;;0.60;99.90;;;;;;5073355;28;20123;-75
2022/01/10 08:15:20;;;;;;;96.82;31.15;;;0.20;99.90;;;;;;5073814;28;20032;-75
2022/01/10 08:17:46;;;;;;;117.00;34.80;;;0.20;99.90;;;;;;5073552;28;20044;-75
2022/01/10 08:20:12;;;;;;;109.20;33.72;;;0.20;99.90;;;;;;5057146;28;20119;-75
2022/01/10 08:22:38;;;;;;;97.57;31.77;;;0.20;99.90;;;;;;5061192;28;20161;-75
2022/01/10 08:25:07;;;;;;;103.60;32.35;;;0.30;99.90;;;;;;5053301;28;20047;-75
2022/01/10 08:27:33;;;;;;;91.07;30.15;;;0.30;99.90;;;;;;5054044;28;20032;-75
2022/01/10 08:29:59;;;;;;;92.05;32.25;;;0.30;99.90;;;;;;5053368;28;20044;-75
2022/01/10 08:32:25;;;;;;;152.20;40.70;;;0.50;99.90;;;;;;5036918;28;20037;-75
2022/01/10 08:34:51;;;;;;;142.10;39.03;;;0.70;99.90;;;;;;5022814;28;20480;-75
2022/01/10 08:37:17;;;;;;;102.88;35.72;;;0.90;99.90;;;;;;5073393;28;20504;-75
2022/01/10 08:39:49;;;;;;;121.78;37.63;;;1.20;99.90;;;;;;5073393;28;20051;-75
2022/01/10 08:42:18;;;;;;;223.93;49.67;;;1.40;99.90;;;;;;5073561;28;20392;-76
2022/01/10 08:44:44;;;;;;;113.85;34.97;;;1.80;99.90;;;;;;5057068;28;20047;-76
2022/01/10 08:47:09;;;;;;;107.88;35.55;;;2.10;99.90;;;;;;5051366;28;20039;-76
2022/01/10 08:49:35;;;;;;;97.55;32.50;;;2.50;99.90;;;;;;5053279;28;20135;-76
2022/01/10 08:52:01;;;;;;;58.65;25.25;;;2.90;99.90;;;;;;5036344;28;20477;-76
2022/01/10 08:54:27;;;;;;;62.75;23.92;;;3.20;99.90;;;;;;5040500;28;20032;-76
2022/01/10 08:56:53;;;;;;;33.33;18.48;;;4.20;99.90;;;;;;5072731;28;20051;-76
2022/01/10 08:59:20;;;;;;;34.88;17.33;;;4.10;99.90;;;;;;5072857;28;20048;-76
2022/01/10 09:01:46;;;;;;;31.45;16.95;;;4.30;99.90;;;;;;5073241;28;20123;-76
2022/01/10 09:04:16;;;;;;;31.83;16.23;;;4.60;99.90;;;;;;5073429;28;20036;-76
2022/01/10 09:06:47;;;;;;;38.58;16.58;;;4.70;99.90;;;;;;5073511;28;20122;-76
2022/01/10 09:09:13;;;;;;;126.40;25.98;;;4.90;99.90;;;;;;5073275;28;20043;-76
2022/01/10 09:11:40;;;;;;;518.20;73.88;;;5.10;99.90;;;;;;5073051;28;20062;-76
2022/01/10 09:14:07;;;;;;;217.10;36.50;;;5.40;99.90;;;;;;5072316;28;20032;-76
2022/01/10 09:16:32;;;;;;;;;;;5.60;99.90;;;;;;5073353;28;20111;-76
2022/01/10 09:18:58;;;;;;;298.55;40.00;;;5.70;99.90;;;;;;5062760;28;20305;-76
2022/01/10 09:21:25;;;;;;;355.80;51.78;;;5.80;99.90;;;;;;5053055;28;20075;-76
2022/01/10 09:23:50;;;;;;;750.13;96.65;;;6.00;99.90;;;;;;5052464;28;20055;-76
2022/01/10 09:26:16;;;;;;;32.95;13.05;;;6.10;99.90;;;;;;5052823;28;20032;-76
2022/01/10 09:28:43;;;;;;;1999.90;356.33;;;6.40;99.90;;;;;;5052970;28;20075;-76
2022/01/10 09:31:12;;;;;;;;;;;6.60;99.90;;;;;;5036213;28;20476;-76
2022/01/10 09:33:39;;;;;;;1089.43;156.23;;;6.70;99.90;;;;;;5063240;28;20429;-77
2022/01/10 09:36:05;;;;;;;158.73;29.50;;;6.90;99.90;;;;;;5072107;28;20048;-76
2022/01/10 09:38:31;;;;;;;;;;;7.10;99.90;;;;;;5067166;28;20477;-77
2022/01/10 09:40:57;;;;;;;147.32;30.65;;;7.30;99.90;;;;;;5069136;28;19969;-76
2022/01/10 09:43:23;;;;;;;25.02;13.40;;;7.30;99.90;;;;;;5052524;28;20040;-76
2022/01/10 09:45:54;;;;;;;1219.70;167.45;;;7.30;99.90;;;;;;5052069;28;20151;-76
2022/01/10 09:48:20;;;;;;;87.22;19.92;;;7.70;99.90;;;;;;5052067;28;20036;-76
2022/01/10 09:50:47;;;;;;;22.05;13.95;;;8.00;99.90;;;;;;5036018;28;20029;-76
2022/01/10 09:53:17;;;;;;;264.38;43.10;;;7.90;99.90;;;;;;5051731;28;20047;-76
2022/01/10 09:55:43;;;;;;;24.95;14.27;;;7.40;99.90;;;;;;5052419;28;20041;-76
2022/01/10 09:58:09;;;;;;;20.95;12.48;;;7.60;99.90;;;;;;5049964;28;20052;-76
2022/01/10 10:00:35;;;;;;;26.33;13.18;;;7.70;99.90;;;;;;5071990;28;20070;-76
2022/01/10 10:03:01;;;;;;;649.58;74.93;;;8.10;99.90;;;;;;5071914;28;20396;-76
2022/01/10 10:05:27;;;;;;;1209.55;145.38;;;8.20;99.90;;;;;;5063279;28;20032;-76
2022/01/10 10:07:53;;;;;;;23.52;13.50;;;8.60;99.90;;;;;;5052016;28;20041;-77
2022/01/10 10:10:21;;;;;;;24.88;14.23;;;9.10;99.90;;;;;;5061298;28;20040;-76
2022/01/10 10:12:48;;;;;;;165.25;29.02;;;9.10;99.90;;;;;;5072110;28;20032;-76
2022/01/10 10:15:17;;;;;;;46.00;19.95;;;9.50;99.90;;;;;;5070830;28;20057;-76
2022/01/10 10:17:44;;;;;;;42.33;14.68;;;9.90;99.90;;;;;;5064010;28;20500;-76
2022/01/10 10:20:12;;;;;;;18.35;12.70;;;10.00;99.90;;;;;;5051048;28;20155;-76
2022/01/10 10:22:42;;;;;;;21.80;12.73;;;10.10;99.90;;;;;;5051858;28;20045;-76
2022/01/10 10:25:10;;;;;;;21.08;12.63;;;10.00;99.90;;;;;;5034720;28;20479;-76
2022/01/10 10:27:42;;;;;;;39.50;15.07;;;10.10;99.90;;;;;;5051929;28;20377;-77
2022/01/10 10:30:25;;;;;;;25.15;12.88;;;10.80;99.90;;;;;;5051069;28;20076;-76
2022/01/10 10:32:51;;;;;;;23.88;12.70;;;11.00;99.90;;;;;;5051826;28;20032;-77
2022/01/10 10:35:17;;;;;;;21.77;11.98;;;11.40;99.90;;;;;;5051849;28;20048;-76
2022/01/10 10:37:44;;;;;;;30.58;15.23;;;11.70;99.90;;;;;;5051810;28;20035;-76
2022/01/10 10:40:14;;;;;;;19.50;12.23;;;11.60;99.90;;;;;;5050666;28;20044;-76
2022/01/10 10:42:42;;;;;;;27.88;13.82;;;11.50;99.90;;;;;;5051503;28;20045;-76
2022/01/10 10:45:11;;;;;;;20.77;12.25;;;11.50;99.90;;;;;;5064587;28;20495;-76
2022/01/10 10:47:39;;;;;;;21.35;13.00;;;11.70;99.90;;;;;;5071411;28;20048;-76
2022/01/10 10:50:07;;;;;;;18.30;11.82;;;11.40;99.90;;;;;;5038027;28;20101;-76
2022/01/10 10:52:34;;;;;;;19.25;12.20;;;12.20;99.90;;;;;;5071318;28;20084;-76
2022/01/10 10:55:05;;;;;;;27.50;12.88;;;11.90;99.90;;;;;;5070639;28;20036;-76
2022/01/10 10:57:32;;;;;;;19.38;12.55;;;11.70;99.90;;;;;;5071183;28;20036;-77
2022/01/10 10:59:59;;;;;;;24.73;13.68;;;11.90;99.90;;;;;;5069735;28;20071;-77
2022/01/10 11:02:26;;;;;;;28.05;14.98;;;11.90;99.90;;;;;;5070282;28;20261;-76
2022/01/10 11:04:52;;;;;;;25.23;16.23;;;12.40;99.90;;;;;;5053776;28;20038;-76
2022/01/10 11:07:22;;;;;;;30.25;17.02;;;12.20;99.90;;;;;;5069838;28;20118;-76
2022/01/10 11:09:49;;;;;;;29.48;19.77;;;12.40;99.90;;;;;;5070290;28;20048;-76
2022/01/10 11:12:17;;;;;;;32.20;19.20;;;13.30;99.90;;;;;;5069752;28;20563;-76
2022/01/10 11:14:43;;;;;;;33.10;20.02;;;13.00;99.90;;;;;;5070030;28;20111;-76
2022/01/10 11:17:15;;;;;;;;;;;13.10;99.90;;;;;;5070448;28;20499;-76
2022/01/10 11:19:41;;;;;;;30.63;18.15;;;13.10;99.90;;;;;;5070156;28;20057;-76
2022/01/10 11:22:08;;;;;;;32.55;16.48;;;13.30;99.90;;;;;;5052635;28;20032;-76
2022/01/10 11:24:46;;;;;;;27.88;16.25;;;13.40;99.90;;;;;;5053165;28;20127;-76
2022/01/10 11:27:35;;;;;;;25.00;14.43;;;13.50;99.90;;;;;;5069452;28;20115;-76
2022/01/10 11:30:24;;;;;;;22.45;12.85;;;13.10;99.90;;;;;;5072994;28;20064;-76
2022/01/10 11:32:56;;;;;;;23.48;12.75;;;13.10;99.90;;;;;;5073683;28;20522;-77
2022/01/10 11:35:31;;;;;;;22.05;12.55;;;13.00;99.90;;;;;;5073301;28;20063;-77
2022/01/10 11:37:57;;;;;;;21.85;12.88;;;13.50;99.90;;;;;;5073677;28;20107;-76
2022/01/10 11:40:24;;;;;;;21.35;12.30;;;13.60;99.90;;;;;;5034399;28;20091;-76
2022/01/10 11:42:58;;;;;;;23.50;11.95;;;13.90;99.90;;;;;;5037174;28;20036;-76
2022/01/10 11:45:26;;;;;;;18.55;11.35;;;14.00;99.90;;;;;;5072689;28;20123;-76
2022/01/10 11:48:09;;;;;;;17.25;10.77;;;14.30;99.90;;;;;;5073263;28;20044;-76
2022/01/10 11:50:43;;;;;;;20.90;11.02;;;14.40;99.90;;;;;;5067643;28;20048;-76
2022/01/10 11:53:09;;;;;;;18.25;10.85;;;14.40;99.90;;;;;;5052482;28;20040;-76
2022/01/10 11:55:52;;;;;;;18.20;11.27;;;14.70;99.90;;;;;;5053286;28;20153;-76
2022/01/10 12:01:06;;;;;;;17.77;10.85;;;14.90;99.90;;;;;;5086162;27;20454;-77
2022/01/10 12:03:33;;;;;;;18.65;10.85;;;15.10;99.90;;;;;;5085368;28;20040;-76
2022/01/10 12:05:58;;;;;;;;;;;15.10;99.90;;;;;;5085842;28;20048;-77
2022/01/10 12:08:24;;;;;;;16.63;10.00;;;14.90;99.90;;;;;;5085107;28;19916;-77
2022/01/10 12:10:51;;;;;;;17.23;10.30;;;15.10;99.90;;;;;;5086608;28;20123;-77
2022/01/10 12:13:18;;;;;;;15.65;9.63;;;15.10;99.90;;;;;;5084479;28;20048;-77
2022/01/10 12:15:44;;;;;;;17.13;10.05;;;15.20;99.90;;;;;;5068324;28;20044;-77
2022/01/10 12:18:10;;;;;;;18.33;9.95;;;15.40;99.90;;;;;;5084438;28;20097;-77
2022/01/10 12:20:36;;;;;;;16.05;10.00;;;15.30;99.90;;;;;;5085006;28;20051;-77
2022/01/10 12:23:01;;;;;;;18.00;10.88;;;15.30;99.90;;;;;;5051163;28;20036;-77
2022/01/10 12:25:28;;;;;;;20.75;9.70;;;15.30;99.90;;;;;;5084851;28;20037;-78
2022/01/10 12:27:56;;;;;;;17.20;9.02;;;15.60;99.90;;;;;;5085226;28;20051;-78
2022/01/10 12:30:25;;;;;;;16.15;9.60;;;15.80;99.90;;;;;;5084627;28;20055;-78
2022/01/10 12:32:51;;;;;;;18.08;10.02;;;15.70;99.90;;;;;;5068015;28;20040;-78
2022/01/10 12:35:17;;;;;;;17.00;10.10;;;15.70;99.90;;;;;;5084126;28;20036;-78
2022/01/10 12:37:43;;;;;;;14.63;9.07;;;15.70;99.90;;;;;;5085010;28;20036;-78
2022/01/10 12:40:10;;;;;;;17.65;9.90;;;15.60;99.90;;;;;;5084169;28;20036;-78
2022/01/10 12:42:36;;;;;;;14.65;8.93;;;15.60;99.90;;;;;;5084679;28;20044;-78
2022/01/10 12:45:04;;;;;;;16.70;8.43;;;15.90;99.90;;;;;;5067965;28;20043;-76
2022/01/10 12:47:31;;;;;;;17.20;8.63;;;16.10;99.90;;;;;;5084355;28;20089;-76
2022/01/10 12:49:57;;;;;;;18.55;9.40;;;15.90;99.90;;;;;;5084429;28;20115;-76